Airfield :
LOGIN :

Register | Disclaimer

   EN    FR    IT 

 










Legend :    VFR   Marginal VFR   IFR   Intensive IFR   Very Intensive IFR
Visi :
Ceiling :
>= 8 km
>= 3000ft
5 to 8 km
1000 to 3000 ft
1500m to 5 km
500 to 1000 ft
800 to 1500m
200 to 500 ft
< 800m
< 200 ft
Symbols :   Thunderstorms  Fog  Heavy snow  Heavy precipitations  Wind > 20 kt
SIGMETs :     Misc.  Thunderstorms  Icing  Turbulence  Mountain Waves  Volcanic Ashes






- Airport Elevation : 87 ft
- IATA code : FSC


LFKF - Figari

CURRENT METAR :
  • 200600Z AUTO 06019G30KT 030V090 9999 OVC033 10/07 Q1027 TEMPO 07025G45KT 3000 BKN020 BKN030 FEW035CB

EXPIRED METARs :
  • 200530Z AUTO 06017G30KT 030V090 9999 -RA OVC032/// ///TCU 09/07 Q1026 TEMPO 07025G45KT 3000 BKN020 BKN030 FEW035CB
  • 200500Z AUTO 06018KT 9999 OVC031/// ///TCU 09/07 Q1026 TEMPO 07025G45KT 3000 BKN020 BKN030 FEW035CB
  • 200430Z AUTO 07016G27KT 9999 FEW014 OVC027 09/07 Q1026 TEMPO 07025G45KT 3000 BKN020 BKN030 FEW035CB
  • 200400Z AUTO 06017G29KT 4900 RA BR FEW022/// BKN034/// BKN041/// ///TCU 08/07 Q1026 TEMPO 07025G45KT BKN020 BKN030 FEW035CB
  • 200330Z AUTO 07016G28KT 4000 RA BR FEW012/// SCT028/// BKN039/// ///TCU 09/08 Q1026 TEMPO 07025G45KT BKN020 BKN030 FEW035CB

TAF TAF LFKF
Valid from the 20 at 03:00 until the 21 at 03:00 UTC


200200Z 2003/2103 07015G25KT 9999 RA SCT020 BKN030 BKN045
TEMPO 2003/2015 07025G45KT 3000 BKN020 BKN030 FEW035CB BKN040
TEMPO 2015/2021 07020G35KT 4000 FEW035TCU
BECMG 2021/2023 NSW



MET'MAP, your aeronautical weather chart ! - Copyright ORBIFLY December 2007 - Disclaimer

ORBIFLY MET'MAP TEAM :

Programming & Development : Alexandra Zaïnal
Concept & original design : Baudouin d'Aumeries
Assistance for programming : Marc-Olivier Méhu
Technical & hardware support : Manuel Goepfert

Contact : metmap@orbifly.com




SOURCES & CREDITS :

   NOAA